sensor_id;sensor_type;location;lat;lon;timestamp;noise_LAeq;noise_LA_min;noise_LA_max;noise_LA01;noise_LA95
49732;Laerm;43666;51.442;6.778;2023-05-07T00:00:41;37.24;32.35;40.03;;
49732;Laerm;43666;51.442;6.778;2023-05-07T00:03:09;37.26;31.68;40.03;;
49732;Laerm;43666;51.442;6.778;2023-05-07T00:05:35;37.22;31.68;40.13;;
49732;Laerm;43666;51.442;6.778;2023-05-07T00:08:01;37.23;31.68;40.13;;
49732;Laerm;43666;51.442;6.778;2023-05-07T00:10:27;37.18;30.89;40.03;;
49732;Laerm;43666;51.442;6.778;2023-05-07T00:12:53;37.20;31.68;46.10;;
49732;Laerm;43666;51.442;6.778;2023-05-07T00:15:20;37.28;30.89;40.03;;
49732;Laerm;43666;51.442;6.778;2023-05-07T00:17:45;37.26;32.35;40.03;;
49732;Laerm;43666;51.442;6.778;2023-05-07T00:20:11;37.28;32.35;40.33;;
49732;Laerm;43666;51.442;6.778;2023-05-07T00:22:37;37.35;32.35;40.23;;
49732;Laerm;43666;51.442;6.778;2023-05-07T00:25:04;37.24;32.35;40.03;;
49732;Laerm;43666;51.442;6.778;2023-05-07T00:27:30;37.27;31.68;40.23;;
49732;Laerm;43666;51.442;6.778;2023-05-07T00:29:55;37.39;30.89;40.33;;
49732;Laerm;43666;51.442;6.778;2023-05-07T00:32:21;37.22;32.35;39.92;;
49732;Laerm;43666;51.442;6.778;2023-05-07T00:34:47;37.17;31.68;40.43;;
49732;Laerm;43666;51.442;6.778;2023-05-07T00:37:13;37.21;32.35;40.23;;
49732;Laerm;43666;51.442;6.778;2023-05-07T00:39:38;37.20;29.92;40.03;;
49732;Laerm;43666;51.442;6.778;2023-05-07T00:42:04;37.25;29.92;39.92;;
49732;Laerm;43666;51.442;6.778;2023-05-07T00:44:30;37.21;31.68;40.03;;
49732;Laerm;43666;51.442;6.778;2023-05-07T00:46:57;37.17;32.35;40.03;;
49732;Laerm;43666;51.442;6.778;2023-05-07T00:49:25;37.24;32.35;40.03;;
49732;Laerm;43666;51.442;6.778;2023-05-07T00:51:56;37.20;31.68;39.92;;
49732;Laerm;43666;51.442;6.778;2023-05-07T00:54:23;37.16;31.68;40.33;;
49732;Laerm;43666;51.442;6.778;2023-05-07T00:56:49;37.18;30.89;40.03;;
49732;Laerm;43666;51.442;6.778;2023-05-07T00:59:14;37.26;31.68;40.43;;
49732;Laerm;43666;51.442;6.778;2023-05-07T01:04:16;37.26;31.68;40.03;;
49732;Laerm;43666;51.442;6.778;2023-05-07T01:06:44;37.38;31.68;40.71;;
49732;Laerm;43666;51.442;6.778;2023-05-07T01:09:10;37.27;31.68;40.33;;
49732;Laerm;43666;51.442;6.778;2023-05-07T01:11:38;37.30;32.35;40.43;;
49732;Laerm;43666;51.442;6.778;2023-05-07T01:14:05;37.45;30.89;40.43;;
49732;Laerm;43666;51.442;6.778;2023-05-07T01:16:31;37.26;31.68;40.13;;
49732;Laerm;43666;51.442;6.778;2023-05-07T01:18:57;37.36;31.68;40.62;;
49732;Laerm;43666;51.442;6.778;2023-05-07T01:21:24;37.16;31.68;40.13;;
49732;Laerm;43666;51.442;6.778;2023-05-07T01:23:52;37.17;32.35;40.62;;
49732;Laerm;43666;51.442;6.778;2023-05-07T01:26:21;37.15;30.89;40.03;;
49732;Laerm;43666;51.442;6.778;2023-05-07T01:28:49;37.17;30.89;40.53;;
49732;Laerm;43666;51.442;6.778;2023-05-07T01:31:15;37.04;30.89;40.23;;
49732;Laerm;43666;51.442;6.778;2023-05-07T01:33:41;37.12;32.35;40.43;;
49732;Laerm;43666;51.442;6.778;2023-05-07T01:36:11;37.15;30.89;40.03;;
49732;Laerm;43666;51.442;6.778;2023-05-07T01:38:38;37.12;31.68;40.53;;
49732;Laerm;43666;51.442;6.778;2023-05-07T01:41:06;37.03;30.54;39.92;;
49732;Laerm;43666;51.442;6.778;2023-05-07T01:43:32;37.05;31.68;40.33;;
49732;Laerm;43666;51.442;6.778;2023-05-07T01:45:59;37.08;30.89;40.13;;
49732;Laerm;43666;51.442;6.778;2023-05-07T01:48:25;37.20;31.68;40.53;;
49732;Laerm;43666;51.442;6.778;2023-05-07T01:50:52;37.16;31.68;40.03;;
49732;Laerm;43666;51.442;6.778;2023-05-07T01:53:17;37.11;30.89;40.43;;
49732;Laerm;43666;51.442;6.778;2023-05-07T01:55:43;37.09;28.67;40.33;;
49732;Laerm;43666;51.442;6.778;2023-05-07T01:58:09;37.15;31.68;40.13;;
49732;Laerm;43666;51.442;6.778;2023-05-07T02:00:36;37.14;30.89;40.33;;
49732;Laerm;43666;51.442;6.778;2023-05-07T02:03:02;37.21;32.35;40.43;;
49732;Laerm;43666;51.442;6.778;2023-05-07T02:05:28;37.11;30.89;40.03;;
49732;Laerm;43666;51.442;6.778;2023-05-07T02:07:54;37.11;31.68;40.23;;
49732;Laerm;43666;51.442;6.778;2023-05-07T02:10:20;37.13;31.68;40.13;;
49732;Laerm;43666;51.442;6.778;2023-05-07T02:12:46;37.05;31.68;40.13;;
49732;Laerm;43666;51.442;6.778;2023-05-07T02:15:12;37.04;30.89;40.13;;
49732;Laerm;43666;51.442;6.778;2023-05-07T02:20:24;37.05;30.89;40.13;;
49732;Laerm;43666;51.442;6.778;2023-05-07T02:22:49;36.97;30.89;40.23;;
49732;Laerm;43666;51.442;6.778;2023-05-07T02:25:15;36.93;29.92;39.81;;
49732;Laerm;43666;51.442;6.778;2023-05-07T02:27:41;37.09;32.35;40.03;;
49732;Laerm;43666;51.442;6.778;2023-05-07T02:30:07;37.17;30.89;41.82;;
49732;Laerm;43666;51.442;6.778;2023-05-07T02:32:33;37.17;30.89;40.23;;
49732;Laerm;43666;51.442;6.778;2023-05-07T02:34:59;37.18;30.89;39.92;;
49732;Laerm;43666;51.442;6.778;2023-05-07T02:37:24;37.54;28.67;40.80;;
49732;Laerm;43666;51.442;6.778;2023-05-07T02:39:50;37.05;31.68;40.13;;
49732;Laerm;43666;51.442;6.778;2023-05-07T02:42:16;36.96;31.68;40.13;;
49732;Laerm;43666;51.442;6.778;2023-05-07T02:44:42;36.95;30.89;41.46;;
49732;Laerm;43666;51.442;6.778;2023-05-07T02:47:08;36.90;29.92;39.92;;
49732;Laerm;43666;51.442;6.778;2023-05-07T02:49:35;36.97;30.89;40.33;;
49732;Laerm;43666;51.442;6.778;2023-05-07T02:52:01;36.95;29.92;39.70;;
49732;Laerm;43666;51.442;6.778;2023-05-07T02:54:27;37.03;30.89;40.13;;
49732;Laerm;43666;51.442;6.778;2023-05-07T02:56:53;36.98;31.68;39.92;;
49732;Laerm;43666;51.442;6.778;2023-05-07T02:59:19;36.96;30.89;40.53;;
49732;Laerm;43666;51.442;6.778;2023-05-07T03:01:45;36.96;30.89;40.13;;
49732;Laerm;43666;51.442;6.778;2023-05-07T03:04:10;36.99;31.68;40.43;;
49732;Laerm;43666;51.442;6.778;2023-05-07T03:06:37;37.09;30.89;40.23;;
49732;Laerm;43666;51.442;6.778;2023-05-07T03:09:02;37.05;31.68;39.92;;
49732;Laerm;43666;51.442;6.778;2023-05-07T03:11:28;37.11;29.92;40.23;;
49732;Laerm;43666;51.442;6.778;2023-05-07T03:13:54;37.07;29.92;40.53;;
49732;Laerm;43666;51.442;6.778;2023-05-07T03:16:19;37.02;30.89;40.33;;
49732;Laerm;43666;51.442;6.778;2023-05-07T03:18:46;36.99;30.89;39.70;;
49732;Laerm;43666;51.442;6.778;2023-05-07T03:21:11;36.93;29.92;39.81;;
49732;Laerm;43666;51.442;6.778;2023-05-07T03:23:37;36.98;28.67;40.23;;
49732;Laerm;43666;51.442;6.778;2023-05-07T03:26:03;36.96;30.89;40.23;;
49732;Laerm;43666;51.442;6.778;2023-05-07T03:28:30;36.98;29.92;40.03;;
49732;Laerm;43666;51.442;6.778;2023-05-07T03:30:55;36.85;28.67;39.70;;
49732;Laerm;43666;51.442;6.778;2023-05-07T03:33:21;36.95;29.92;40.18;;
49732;Laerm;43666;51.442;6.778;2023-05-07T03:35:47;36.98;31.68;39.70;;
49732;Laerm;43666;51.442;6.778;2023-05-07T03:38:13;37.01;29.92;40.23;;
49732;Laerm;43666;51.442;6.778;2023-05-07T03:40:39;36.99;28.67;39.81;;
49732;Laerm;43666;51.442;6.778;2023-05-07T03:43:05;36.98;29.92;40.13;;
49732;Laerm;43666;51.442;6.778;2023-05-07T03:45:31;37.05;29.92;40.03;;
49732;Laerm;43666;51.442;6.778;2023-05-07T03:47:56;37.04;31.68;40.23;;
49732;Laerm;43666;51.442;6.778;2023-05-07T03:50:22;36.96;30.54;39.81;;
49732;Laerm;43666;51.442;6.778;2023-05-07T03:52:48;36.99;29.92;40.23;;
49732;Laerm;43666;51.442;6.778;2023-05-07T03:55:13;37.14;31.68;40.13;;
49732;Laerm;43666;51.442;6.778;2023-05-07T03:57:38;36.96;31.68;40.23;;
49732;Laerm;43666;51.442;6.778;2023-05-07T04:00:06;36.97;29.92;40.23;;
49732;Laerm;43666;51.442;6.778;2023-05-07T04:02:33;36.94;29.92;40.23;;
49732;Laerm;43666;51.442;6.778;2023-05-07T04:04:59;36.89;30.89;40.18;;
49732;Laerm;43666;51.442;6.778;2023-05-07T04:07:25;36.95;28.67;40.43;;
49732;Laerm;43666;51.442;6.778;2023-05-07T04:09:50;37.02;29.92;39.92;;
49732;Laerm;43666;51.442;6.778;2023-05-07T04:12:16;36.97;29.92;40.03;;
49732;Laerm;43666;51.442;6.778;2023-05-07T04:14:41;36.97;30.89;40.03;;
49732;Laerm;43666;51.442;6.778;2023-05-07T04:17:07;36.95;29.92;39.81;;
49732;Laerm;43666;51.442;6.778;2023-05-07T04:19:35;36.96;29.92;40.13;;
49732;Laerm;43666;51.442;6.778;2023-05-07T04:22:01;36.92;30.89;40.03;;
49732;Laerm;43666;51.442;6.778;2023-05-07T04:24:30;36.94;29.92;40.03;;
49732;Laerm;43666;51.442;6.778;2023-05-07T04:26:56;36.93;30.89;39.81;;
49732;Laerm;43666;51.442;6.778;2023-05-07T04:29:24;36.93;30.89;40.23;;
49732;Laerm;43666;51.442;6.778;2023-05-07T04:31:50;36.90;31.68;40.03;;
49732;Laerm;43666;51.442;6.778;2023-05-07T04:34:16;36.93;30.89;40.03;;
49732;Laerm;43666;51.442;6.778;2023-05-07T04:36:42;36.96;29.92;39.81;;
49732;Laerm;43666;51.442;6.778;2023-05-07T04:39:08;36.97;32.35;40.33;;
49732;Laerm;43666;51.442;6.778;2023-05-07T04:41:35;36.96;31.68;39.92;;
49732;Laerm;43666;51.442;6.778;2023-05-07T04:44:01;36.93;30.89;40.13;;
49732;Laerm;43666;51.442;6.778;2023-05-07T04:46:30;36.99;28.67;40.13;;
49732;Laerm;43666;51.442;6.778;2023-05-07T04:48:56;36.99;29.92;39.92;;
49732;Laerm;43666;51.442;6.778;2023-05-07T04:51:22;37.03;30.89;40.53;;
49732;Laerm;43666;51.442;6.778;2023-05-07T04:53:48;37.10;29.92;40.53;;
49732;Laerm;43666;51.442;6.778;2023-05-07T04:56:14;37.11;30.89;40.23;;
49732;Laerm;43666;51.442;6.778;2023-05-07T04:58:40;37.07;30.89;40.13;;
49732;Laerm;43666;51.442;6.778;2023-05-07T05:01:05;37.12;29.92;40.27;;
49732;Laerm;43666;51.442;6.778;2023-05-07T05:03:31;37.17;30.89;40.23;;
49732;Laerm;43666;51.442;6.778;2023-05-07T05:06:01;37.04;31.68;40.03;;
49732;Laerm;43666;51.442;6.778;2023-05-07T05:08:26;37.07;30.89;40.13;;
49732;Laerm;43666;51.442;6.778;2023-05-07T05:10:52;37.02;30.89;39.92;;
49732;Laerm;43666;51.442;6.778;2023-05-07T05:13:18;36.94;29.92;39.70;;
49732;Laerm;43666;51.442;6.778;2023-05-07T05:15:44;37.10;31.68;40.62;;
49732;Laerm;43666;51.442;6.778;2023-05-07T05:18:11;37.01;30.89;40.03;;
49732;Laerm;43666;51.442;6.778;2023-05-07T05:20:36;37.07;28.67;40.53;;
49732;Laerm;43666;51.442;6.778;2023-05-07T05:23:02;37.17;30.89;41.30;;
49732;Laerm;43666;51.442;6.778;2023-05-07T05:25:28;37.21;30.89;40.43;;
49732;Laerm;43666;51.442;6.778;2023-05-07T05:27:54;37.17;30.89;40.08;;
49732;Laerm;43666;51.442;6.778;2023-05-07T05:30:20;37.20;31.68;40.03;;
49732;Laerm;43666;51.442;6.778;2023-05-07T05:32:47;37.29;31.68;40.62;;
49732;Laerm;43666;51.442;6.778;2023-05-07T05:35:13;37.27;28.67;40.62;;
49732;Laerm;43666;51.442;6.778;2023-05-07T05:37:39;37.16;31.68;40.13;;
49732;Laerm;43666;51.442;6.778;2023-05-07T05:40:05;37.24;31.68;40.33;;
49732;Laerm;43666;51.442;6.778;2023-05-07T05:42:31;37.06;31.68;40.03;;
49732;Laerm;43666;51.442;6.778;2023-05-07T05:44:56;36.98;23.90;40.13;;
49732;Laerm;43666;51.442;6.778;2023-05-07T05:47:23;37.03;31.68;40.03;;
49732;Laerm;43666;51.442;6.778;2023-05-07T05:49:49;37.06;23.90;40.13;;
49732;Laerm;43666;51.442;6.778;2023-05-07T05:52:15;37.03;30.89;40.03;;
49732;Laerm;43666;51.442;6.778;2023-05-07T05:54:42;36.96;30.89;39.92;;
49732;Laerm;43666;51.442;6.778;2023-05-07T05:57:08;36.98;29.92;40.03;;
49732;Laerm;43666;51.442;6.778;2023-05-07T05:59:34;37.07;28.67;40.23;;
49732;Laerm;43666;51.442;6.778;2023-05-07T06:02:00;37.00;30.89;40.43;;
49732;Laerm;43666;51.442;6.778;2023-05-07T06:04:26;37.06;29.92;41.06;;
49732;Laerm;43666;51.442;6.778;2023-05-07T06:06:51;37.17;31.68;40.33;;
49732;Laerm;43666;51.442;6.778;2023-05-07T06:09:17;37.24;30.89;40.53;;
49732;Laerm;43666;51.442;6.778;2023-05-07T06:11:43;37.20;29.92;40.89;;
49732;Laerm;43666;51.442;6.778;2023-05-07T06:14:09;37.18;30.89;40.23;;
49732;Laerm;43666;51.442;6.778;2023-05-07T06:16:35;37.13;31.68;40.13;;
49732;Laerm;43666;51.442;6.778;2023-05-07T06:19:03;37.18;23.90;40.43;;
49732;Laerm;43666;51.442;6.778;2023-05-07T06:21:29;37.11;30.54;39.99;;
49732;Laerm;43666;51.442;6.778;2023-05-07T06:23:55;37.13;31.68;40.13;;
49732;Laerm;43666;51.442;6.778;2023-05-07T06:26:21;37.19;26.91;39.92;;
49732;Laerm;43666;51.442;6.778;2023-05-07T06:28:47;37.09;29.92;40.13;;
49732;Laerm;43666;51.442;6.778;2023-05-07T06:31:13;37.12;28.67;40.53;;
49732;Laerm;43666;51.442;6.778;2023-05-07T06:33:39;37.16;28.67;40.43;;
49732;Laerm;43666;51.442;6.778;2023-05-07T06:36:08;37.33;32.00;45.04;;
49732;Laerm;43666;51.442;6.778;2023-05-07T06:38:35;37.19;29.92;40.43;;
49732;Laerm;43666;51.442;6.778;2023-05-07T06:41:02;37.12;29.92;40.33;;
49732;Laerm;43666;51.442;6.778;2023-05-07T06:43:28;37.16;29.92;40.33;;
49732;Laerm;43666;51.442;6.778;2023-05-07T06:45:54;37.16;30.54;39.92;;
49732;Laerm;43666;51.442;6.778;2023-05-07T06:48:19;37.23;31.33;40.89;;
49732;Laerm;43666;51.442;6.778;2023-05-07T06:50:45;37.26;30.54;40.23;;
49732;Laerm;43666;51.442;6.778;2023-05-07T06:53:11;37.23;32.35;40.23;;
49732;Laerm;43666;51.442;6.778;2023-05-07T06:55:37;37.26;32.35;40.43;;
49732;Laerm;43666;51.442;6.778;2023-05-07T06:58:04;37.11;31.68;40.23;;
49732;Laerm;43666;51.442;6.778;2023-05-07T07:00:30;37.09;31.68;41.06;;
49732;Laerm;43666;51.442;6.778;2023-05-07T07:02:56;37.09;32.35;40.53;;
49732;Laerm;43666;51.442;6.778;2023-05-07T07:05:22;37.10;32.35;40.33;;
49732;Laerm;43666;51.442;6.778;2023-05-07T07:07:48;37.08;30.89;40.13;;
49732;Laerm;43666;51.442;6.778;2023-05-07T07:10:18;37.12;29.92;40.80;;
49732;Laerm;43666;51.442;6.778;2023-05-07T07:12:45;37.23;29.92;40.80;;
49732;Laerm;43666;51.442;6.778;2023-05-07T07:15:11;37.16;29.92;40.13;;
49732;Laerm;43666;51.442;6.778;2023-05-07T07:17:36;37.11;31.68;41.68;;
49732;Laerm;43666;51.442;6.778;2023-05-07T07:20:02;37.11;31.68;40.13;;
49732;Laerm;43666;51.442;6.778;2023-05-07T07:22:28;37.10;30.54;40.03;;
49732;Laerm;43666;51.442;6.778;2023-05-07T07:24:55;37.11;30.89;40.03;;
49732;Laerm;43666;51.442;6.778;2023-05-07T07:27:20;37.11;30.89;40.71;;
49732;Laerm;43666;51.442;6.778;2023-05-07T07:29:47;37.10;31.68;40.03;;
49732;Laerm;43666;51.442;6.778;2023-05-07T07:32:13;37.10;31.33;40.13;;
49732;Laerm;43666;51.442;6.778;2023-05-07T07:34:39;37.16;31.68;40.71;;
49732;Laerm;43666;51.442;6.778;2023-05-07T07:37:05;37.15;32.35;40.13;;
49732;Laerm;43666;51.442;6.778;2023-05-07T07:39:36;37.12;30.89;40.03;;
49732;Laerm;43666;51.442;6.778;2023-05-07T07:42:05;37.14;30.89;40.27;;
49732;Laerm;43666;51.442;6.778;2023-05-07T07:44:30;37.12;29.92;40.43;;
49732;Laerm;43666;51.442;6.778;2023-05-07T07:46:56;37.07;31.33;39.92;;
49732;Laerm;43666;51.442;6.778;2023-05-07T07:49:21;37.17;30.89;40.23;;
49732;Laerm;43666;51.442;6.778;2023-05-07T07:51:47;37.24;32.35;40.33;;
49732;Laerm;43666;51.442;6.778;2023-05-07T07:54:13;37.18;31.68;40.18;;
49732;Laerm;43666;51.442;6.778;2023-05-07T07:56:39;37.28;31.68;41.14;;
49732;Laerm;43666;51.442;6.778;2023-05-07T07:59:05;37.19;30.89;40.33;;
49732;Laerm;43666;51.442;6.778;2023-05-07T08:01:31;37.23;31.68;40.43;;
49732;Laerm;43666;51.442;6.778;2023-05-07T08:03:56;37.22;30.89;40.33;;
49732;Laerm;43666;51.442;6.778;2023-05-07T08:06:24;37.27;31.68;40.33;;
49732;Laerm;43666;51.442;6.778;2023-05-07T08:08:51;37.34;31.68;40.89;;
49732;Laerm;43666;51.442;6.778;2023-05-07T08:11:20;37.29;31.68;40.98;;
49732;Laerm;43666;51.442;6.778;2023-05-07T08:13:46;37.33;31.68;40.89;;
49732;Laerm;43666;51.442;6.778;2023-05-07T08:16:13;37.50;32.35;40.89;;
49732;Laerm;43666;51.442;6.778;2023-05-07T08:18:39;37.72;32.93;41.22;;
49732;Laerm;43666;51.442;6.778;2023-05-07T08:21:04;37.65;32.35;41.53;;
49732;Laerm;43666;51.442;6.778;2023-05-07T08:23:30;37.55;32.35;41.75;;
49732;Laerm;43666;51.442;6.778;2023-05-07T08:25:57;37.45;32.35;41.68;;
49732;Laerm;43666;51.442;6.778;2023-05-07T08:28:23;37.52;29.92;41.22;;
49732;Laerm;43666;51.442;6.778;2023-05-07T08:30:50;37.34;32.58;40.33;;
49732;Laerm;43666;51.442;6.778;2023-05-07T08:33:16;37.31;31.68;40.33;;
49732;Laerm;43666;51.442;6.778;2023-05-07T08:35:42;37.32;29.92;41.41;;
49732;Laerm;43666;51.442;6.778;2023-05-07T08:38:08;37.32;32.93;40.33;;
49732;Laerm;43666;51.442;6.778;2023-05-07T08:40:37;37.36;32.35;40.43;;
49732;Laerm;43666;51.442;6.778;2023-05-07T08:43:07;37.66;32.93;41.38;;
49732;Laerm;43666;51.442;6.778;2023-05-07T08:45:34;37.38;31.68;40.13;;
49732;Laerm;43666;51.442;6.778;2023-05-07T08:48:01;37.35;30.89;40.33;;
49732;Laerm;43666;51.442;6.778;2023-05-07T08:50:28;37.43;31.68;40.43;;
49732;Laerm;43666;51.442;6.778;2023-05-07T08:52:53;37.37;29.92;41.06;;
49732;Laerm;43666;51.442;6.778;2023-05-07T08:55:20;37.40;33.44;40.13;;
49732;Laerm;43666;51.442;6.778;2023-05-07T08:57:49;37.43;31.68;40.33;;
49732;Laerm;43666;51.442;6.778;2023-05-07T09:00:18;37.35;32.35;40.33;;
49732;Laerm;43666;51.442;6.778;2023-05-07T09:02:45;37.53;30.89;40.53;;
49732;Laerm;43666;51.442;6.778;2023-05-07T09:05:10;37.50;30.89;40.62;;
49732;Laerm;43666;51.442;6.778;2023-05-07T09:07:37;37.54;32.93;40.43;;
49732;Laerm;43666;51.442;6.778;2023-05-07T09:10:03;37.47;31.68;40.13;;
49732;Laerm;43666;51.442;6.778;2023-05-07T09:12:30;37.59;31.68;40.71;;
49732;Laerm;43666;51.442;6.778;2023-05-07T09:14:56;37.57;31.68;40.80;;
49732;Laerm;43666;51.442;6.778;2023-05-07T09:17:22;37.79;32.35;41.14;;
49732;Laerm;43666;51.442;6.778;2023-05-07T09:19:47;37.81;32.93;40.88;;
49732;Laerm;43666;51.442;6.778;2023-05-07T09:22:13;37.65;32.93;40.33;;
49732;Laerm;43666;51.442;6.778;2023-05-07T09:24:39;37.62;33.44;40.98;;
49732;Laerm;43666;51.442;6.778;2023-05-07T09:27:05;37.70;33.44;40.53;;
49732;Laerm;43666;51.442;6.778;2023-05-07T09:29:31;37.69;32.93;40.80;;
49732;Laerm;43666;51.442;6.778;2023-05-07T09:32:04;37.57;32.93;41.22;;
49732;Laerm;43666;51.442;6.778;2023-05-07T09:34:30;37.67;32.35;40.62;;
49732;Laerm;43666;51.442;6.778;2023-05-07T09:37:06;37.60;32.93;40.62;;
49732;Laerm;43666;51.442;6.778;2023-05-07T09:39:39;37.54;32.93;40.43;;
49732;Laerm;43666;51.442;6.778;2023-05-07T09:42:06;37.59;32.35;40.71;;
49732;Laerm;43666;51.442;6.778;2023-05-07T09:44:33;37.57;32.93;40.33;;
49732;Laerm;43666;51.442;6.778;2023-05-07T09:46:59;37.67;32.93;40.62;;
49732;Laerm;43666;51.442;6.778;2023-05-07T09:49:26;37.75;33.90;40.71;;
49732;Laerm;43666;51.442;6.778;2023-05-07T09:51:55;37.76;32.93;41.30;;
49732;Laerm;43666;51.442;6.778;2023-05-07T09:54:22;37.83;33.90;40.43;;
49732;Laerm;43666;51.442;6.778;2023-05-07T09:56:48;37.87;33.90;42.59;;
49732;Laerm;43666;51.442;6.778;2023-05-07T09:59:14;37.81;32.93;41.14;;
49732;Laerm;43666;51.442;6.778;2023-05-07T10:01:41;37.79;33.44;41.14;;
49732;Laerm;43666;51.442;6.778;2023-05-07T10:04:08;37.71;32.93;40.23;;
49732;Laerm;43666;51.442;6.778;2023-05-07T10:06:34;37.82;34.31;40.43;;
49732;Laerm;43666;51.442;6.778;2023-05-07T10:09:00;37.81;33.90;40.89;;
49732;Laerm;43666;51.442;6.778;2023-05-07T10:11:26;37.91;33.44;40.43;;
49732;Laerm;43666;51.442;6.778;2023-05-07T10:13:52;37.92;34.31;40.62;;
49732;Laerm;43666;51.442;6.778;2023-05-07T10:16:18;37.87;33.44;40.43;;
49732;Laerm;43666;51.442;6.778;2023-05-07T10:18:45;37.78;33.90;40.33;;
49732;Laerm;43666;51.442;6.778;2023-05-07T10:21:18;37.91;33.90;40.80;;
49732;Laerm;43666;51.442;6.778;2023-05-07T10:23:45;37.86;33.44;40.89;;
49732;Laerm;43666;51.442;6.778;2023-05-07T10:26:11;37.87;33.90;40.98;;
49732;Laerm;43666;51.442;6.778;2023-05-07T10:28:42;37.91;33.44;40.71;;
49732;Laerm;43666;51.442;6.778;2023-05-07T10:33:53;38.00;34.69;41.11;;
49732;Laerm;43666;51.442;6.778;2023-05-07T10:36:20;37.96;32.93;40.71;;
49732;Laerm;43666;51.442;6.778;2023-05-07T10:38:47;37.93;33.44;41.96;;
49732;Laerm;43666;51.442;6.778;2023-05-07T10:41:13;37.98;33.90;41.30;;
49732;Laerm;43666;51.442;6.778;2023-05-07T10:43:41;37.97;33.44;41.06;;
49732;Laerm;43666;51.442;6.778;2023-05-07T10:51:33;38.05;33.44;41.14;;
49732;Laerm;43666;51.442;6.778;2023-05-07T10:56:33;38.14;34.31;41.30;;
49732;Laerm;43666;51.442;6.778;2023-05-07T11:01:55;38.11;34.69;41.06;;
49732;Laerm;43666;51.442;6.778;2023-05-07T11:04:24;38.18;34.31;41.53;;
49732;Laerm;43666;51.442;6.778;2023-05-07T11:10:06;38.06;33.90;42.88;;
49732;Laerm;43666;51.442;6.778;2023-05-07T11:15:04;37.98;33.44;40.43;;
49732;Laerm;43666;51.442;6.778;2023-05-07T11:17:30;38.07;34.31;40.80;;
49732;Laerm;43666;51.442;6.778;2023-05-07T11:19:57;37.86;33.44;41.06;;
49732;Laerm;43666;51.442;6.778;2023-05-07T11:22:45;37.96;33.44;40.62;;
49732;Laerm;43666;51.442;6.778;2023-05-07T11:25:09;37.92;32.93;40.62;;
49732;Laerm;43666;51.442;6.778;2023-05-07T11:27:35;38.00;34.31;40.62;;
49732;Laerm;43666;51.442;6.778;2023-05-07T11:30:01;37.98;34.31;40.98;;
49732;Laerm;43666;51.442;6.778;2023-05-07T11:32:28;37.98;33.90;40.71;;
49732;Laerm;43666;51.442;6.778;2023-05-07T11:34:55;38.03;33.90;40.43;;
49732;Laerm;43666;51.442;6.778;2023-05-07T11:37:22;38.05;33.90;40.71;;
49732;Laerm;43666;51.442;6.778;2023-05-07T11:39:48;38.09;34.31;40.80;;
49732;Laerm;43666;51.442;6.778;2023-05-07T11:42:30;38.16;34.31;40.62;;
49732;Laerm;43666;51.442;6.778;2023-05-07T11:44:57;38.17;34.69;40.62;;
49732;Laerm;43666;51.442;6.778;2023-05-07T11:47:22;38.18;33.90;40.80;;
49732;Laerm;43666;51.442;6.778;2023-05-07T11:49:50;38.31;34.69;40.71;;
49732;Laerm;43666;51.442;6.778;2023-05-07T11:52:16;38.31;34.31;41.38;;
49732;Laerm;43666;51.442;6.778;2023-05-07T11:54:52;38.23;34.69;40.62;;
49732;Laerm;43666;51.442;6.778;2023-05-07T11:57:19;38.24;35.04;40.80;;
49732;Laerm;43666;51.442;6.778;2023-05-07T11:59:45;38.13;34.34;40.80;;
49732;Laerm;43666;51.442;6.778;2023-05-07T12:02:16;38.13;34.31;40.71;;
49732;Laerm;43666;51.442;6.778;2023-05-07T12:04:42;38.09;32.93;40.98;;
49732;Laerm;43666;51.442;6.778;2023-05-07T12:07:11;38.06;33.44;40.71;;
49732;Laerm;43666;51.442;6.778;2023-05-07T12:09:37;38.13;33.44;40.62;;
49732;Laerm;43666;51.442;6.778;2023-05-07T12:12:04;38.17;32.93;40.89;;
49732;Laerm;43666;51.442;6.778;2023-05-07T12:14:30;38.23;34.31;40.98;;
49732;Laerm;43666;51.442;6.778;2023-05-07T12:16:56;38.24;33.90;40.80;;
49732;Laerm;43666;51.442;6.778;2023-05-07T12:19:22;38.06;34.31;40.71;;
49732;Laerm;43666;51.442;6.778;2023-05-07T12:21:48;38.07;34.69;40.71;;
49732;Laerm;43666;51.442;6.778;2023-05-07T12:24:14;38.06;34.31;40.80;;
49732;Laerm;43666;51.442;6.778;2023-05-07T12:26:40;38.07;34.31;40.53;;
49732;Laerm;43666;51.442;6.778;2023-05-07T12:29:07;38.02;35.01;40.71;;
49732;Laerm;43666;51.442;6.778;2023-05-07T12:31:34;38.13;34.69;52.86;;
49732;Laerm;43666;51.442;6.778;2023-05-07T12:34:00;38.07;33.90;40.43;;
49732;Laerm;43666;51.442;6.778;2023-05-07T12:36:25;38.17;34.69;40.80;;
49732;Laerm;43666;51.442;6.778;2023-05-07T12:38:51;38.08;34.69;40.71;;
49732;Laerm;43666;51.442;6.778;2023-05-07T12:41:17;38.07;32.93;40.62;;
49732;Laerm;43666;51.442;6.778;2023-05-07T12:43:43;38.17;34.31;57.33;;
49732;Laerm;43666;51.442;6.778;2023-05-07T12:46:09;38.18;34.69;41.14;;
49732;Laerm;43666;51.442;6.778;2023-05-07T12:48:36;38.11;34.31;40.43;;
49732;Laerm;43666;51.442;6.778;2023-05-07T12:51:02;38.04;33.90;40.71;;
49732;Laerm;43666;51.442;6.778;2023-05-07T12:53:28;37.99;34.69;40.43;;
49732;Laerm;43666;51.442;6.778;2023-05-07T12:55:55;38.10;34.69;41.06;;
49732;Laerm;43666;51.442;6.778;2023-05-07T13:00:51;38.31;33.90;41.14;;
49732;Laerm;43666;51.442;6.778;2023-05-07T13:05:49;38.29;33.90;40.53;;
49732;Laerm;43666;51.442;6.778;2023-05-07T13:10:51;38.24;34.31;40.80;;
49732;Laerm;43666;51.442;6.778;2023-05-07T13:13:17;38.22;34.31;40.53;;
49732;Laerm;43666;51.442;6.778;2023-05-07T13:15:42;38.26;35.04;40.89;;
49732;Laerm;43666;51.442;6.778;2023-05-07T13:18:08;38.22;35.01;40.53;;
49732;Laerm;43666;51.442;6.778;2023-05-07T13:20:36;38.22;34.69;40.63;;
49732;Laerm;43666;51.442;6.778;2023-05-07T13:23:01;38.21;35.04;40.71;;
49732;Laerm;43666;51.442;6.778;2023-05-07T13:25:30;38.19;34.69;40.71;;
49732;Laerm;43666;51.442;6.778;2023-05-07T13:27:59;38.21;34.69;40.53;;
49732;Laerm;43666;51.442;6.778;2023-05-07T13:30:25;38.21;34.69;40.71;;
49732;Laerm;43666;51.442;6.778;2023-05-07T13:32:51;38.18;34.31;40.53;;
49732;Laerm;43666;51.442;6.778;2023-05-07T13:35:18;38.26;33.90;40.53;;
49732;Laerm;43666;51.442;6.778;2023-05-07T13:37:44;38.31;34.31;40.88;;
49732;Laerm;43666;51.442;6.778;2023-05-07T13:40:09;38.17;34.69;40.53;;
49732;Laerm;43666;51.442;6.778;2023-05-07T13:42:35;38.16;34.31;40.89;;
49732;Laerm;43666;51.442;6.778;2023-05-07T13:45:00;38.12;34.31;40.71;;
49732;Laerm;43666;51.442;6.778;2023-05-07T13:47:28;38.09;33.90;40.53;;
49732;Laerm;43666;51.442;6.778;2023-05-07T13:49:53;38.08;34.69;40.80;;
49732;Laerm;43666;51.442;6.778;2023-05-07T13:52:20;37.95;33.90;40.62;;
49732;Laerm;43666;51.442;6.778;2023-05-07T13:54:46;37.88;34.31;40.71;;
49732;Laerm;43666;51.442;6.778;2023-05-07T13:57:12;37.97;33.90;43.49;;
49732;Laerm;43666;51.442;6.778;2023-05-07T13:59:37;38.02;33.44;48.55;;
49732;Laerm;43666;51.442;6.778;2023-05-07T14:02:03;37.94;34.31;42.03;;
49732;Laerm;43666;51.442;6.778;2023-05-07T14:04:30;37.85;34.69;40.53;;
49732;Laerm;43666;51.442;6.778;2023-05-07T14:06:55;37.89;33.44;42.03;;
49732;Laerm;43666;51.442;6.778;2023-05-07T14:09:22;37.81;34.31;40.33;;
49732;Laerm;43666;51.442;6.778;2023-05-07T14:11:47;37.80;34.31;40.80;;